createdAt,value
2018-08-03T00:01:54.273Z,12.80
2018-08-03T00:04:21.746Z,12.90
2018-08-03T00:06:49.082Z,12.73
2018-08-03T00:09:16.474Z,13.00
2018-08-03T00:11:43.947Z,12.43
2018-08-03T00:14:11.382Z,12.67
2018-08-03T00:16:38.726Z,12.10
2018-08-03T00:19:06.148Z,12.35
2018-08-03T00:21:33.603Z,12.58
2018-08-03T00:24:01.065Z,12.00
2018-08-03T00:26:28.499Z,12.18
2018-08-03T00:28:55.950Z,12.23
2018-08-03T00:31:23.409Z,12.98
2018-08-03T00:33:50.909Z,13.00
2018-08-03T00:36:18.271Z,12.75
2018-08-03T00:38:45.978Z,12.73
2018-08-03T00:41:13.391Z,12.93
2018-08-03T00:43:40.814Z,13.03
2018-08-03T00:46:08.232Z,13.68
2018-08-03T00:48:35.750Z,13.62
2018-08-03T00:51:03.161Z,14.00
2018-08-03T00:53:30.666Z,13.48
2018-08-03T00:55:58.201Z,13.70
2018-08-03T00:58:25.549Z,13.70
2018-08-03T01:00:52.976Z,14.10
2018-08-03T01:03:20.456Z,14.07
2018-08-03T01:05:47.843Z,13.22
2018-08-03T01:08:15.239Z,13.55
2018-08-03T01:10:42.678Z,14.58
2018-08-03T01:13:10.190Z,14.73
2018-08-03T01:15:37.623Z,15.07
2018-08-03T01:18:05.136Z,15.32
2018-08-03T01:20:32.497Z,15.95
2018-08-03T01:22:59.991Z,15.72
2018-08-03T01:25:27.535Z,16.12
2018-08-03T01:27:54.933Z,15.40
2018-08-03T01:30:22.431Z,15.40
2018-08-03T01:32:49.941Z,15.38
2018-08-03T01:35:17.436Z,15.85
2018-08-03T01:37:44.903Z,15.50
2018-08-03T01:40:12.391Z,15.75
2018-08-03T01:42:39.941Z,15.43
2018-08-03T01:45:07.409Z,15.43
2018-08-03T01:47:34.807Z,15.88
2018-08-03T01:50:02.325Z,15.90
2018-08-03T01:52:29.748Z,16.02
2018-08-03T01:54:57.250Z,15.95
2018-08-03T01:57:24.786Z,16.20
2018-08-03T01:59:52.192Z,16.45
2018-08-03T02:02:19.532Z,17.73
2018-08-03T02:04:46.992Z,16.97
2018-08-03T02:07:14.397Z,17.35
2018-08-03T02:09:41.850Z,18.03
2018-08-03T02:12:09.293Z,17.53
2018-08-03T02:14:36.693Z,16.97
2018-08-03T02:17:04.104Z,17.80
2018-08-03T02:19:31.559Z,16.73
2018-08-03T02:21:58.992Z,17.55
2018-08-03T02:24:26.484Z,16.55
2018-08-03T02:26:53.939Z,16.52
2018-08-03T02:29:21.335Z,16.02
2018-08-03T02:31:48.746Z,16.57
2018-08-03T02:34:16.223Z,16.23
2018-08-03T02:36:43.659Z,16.10
2018-08-03T02:39:11.860Z,16.17
2018-08-03T02:41:39.472Z,16.83
2018-08-03T02:44:07.398Z,17.03
2018-08-03T02:46:34.869Z,16.80
2018-08-03T02:49:02.373Z,16.50
2018-08-03T02:51:29.843Z,17.60
2018-08-03T02:53:57.247Z,18.80
2018-08-03T02:56:24.647Z,18.00
2018-08-03T02:58:52.046Z,17.50
2018-08-03T03:01:19.612Z,17.90
2018-08-03T03:03:47.092Z,17.65
2018-08-03T03:06:14.468Z,17.85
2018-08-03T03:08:41.899Z,17.80
2018-08-03T03:11:09.379Z,18.20
2018-08-03T03:13:36.792Z,18.20
2018-08-03T03:16:04.189Z,17.27
2018-08-03T03:18:31.579Z,18.50
2018-08-03T03:20:58.965Z,19.05
2018-08-03T03:23:26.329Z,19.10
2018-08-03T03:25:53.729Z,30.92
2018-08-03T03:28:21.172Z,19.85
2018-08-03T03:30:48.597Z,18.85
2018-08-03T03:33:16.094Z,19.70
2018-08-03T03:35:43.535Z,18.70
2018-08-03T03:38:10.937Z,18.57
2018-08-03T03:40:38.346Z,18.30
2018-08-03T03:43:05.893Z,17.45
2018-08-03T03:45:33.447Z,18.25
2018-08-03T03:48:00.923Z,18.67
2018-08-03T03:50:28.364Z,17.90
2018-08-03T03:52:55.801Z,17.85
2018-08-03T03:55:23.230Z,18.40
2018-08-03T03:57:50.693Z,18.95
2018-08-03T04:00:18.203Z,17.85
2018-08-03T04:02:45.743Z,18.32
2018-08-03T04:05:13.185Z,17.77
2018-08-03T04:07:41.103Z,19.77
2018-08-03T04:10:08.487Z,19.90
2018-08-03T04:12:35.896Z,18.10
2018-08-03T04:15:03.761Z,17.60
2018-08-03T04:17:31.189Z,18.23
2018-08-03T04:19:58.694Z,17.87
2018-08-03T04:22:26.212Z,17.17
2018-08-03T04:24:53.703Z,17.27
2018-08-03T04:27:21.265Z,16.90
2018-08-03T04:29:48.700Z,17.00
2018-08-03T04:32:16.259Z,16.97
2018-08-03T04:34:43.724Z,16.48
2018-08-03T04:37:11.140Z,16.87
2018-08-03T04:39:38.546Z,17.32
2018-08-03T04:42:06.105Z,16.87
2018-08-03T04:44:33.511Z,16.45
2018-08-03T04:47:00.915Z,17.05
2018-08-03T04:49:28.386Z,20.33
2018-08-03T04:51:55.860Z,23.53
2018-08-03T04:54:23.263Z,23.47
2018-08-03T04:56:50.670Z,27.07
2018-08-03T04:59:18.102Z,18.23
2018-08-03T05:01:45.569Z,18.30
2018-08-03T05:04:13.039Z,19.73
2018-08-03T05:06:40.487Z,25.25
2018-08-03T05:09:08.198Z,17.05
2018-08-03T05:11:35.808Z,16.67
2018-08-03T05:14:03.413Z,16.70
2018-08-03T05:16:30.911Z,17.57
2018-08-03T05:18:58.353Z,17.57
2018-08-03T05:21:25.812Z,16.40
2018-08-03T05:23:57.521Z,17.13
2018-08-03T05:26:25.101Z,19.70
2018-08-03T05:28:52.643Z,22.55
2018-08-03T05:31:20.018Z,19.27
2018-08-03T05:33:47.582Z,16.17
2018-08-03T05:36:15.044Z,16.90
2018-08-03T05:38:42.502Z,16.35
2018-08-03T05:41:09.972Z,16.57
2018-08-03T05:43:37.472Z,16.60
2018-08-03T05:46:05.219Z,16.35
2018-08-03T05:48:32.652Z,16.90
2018-08-03T05:51:00.110Z,16.35
2018-08-03T05:53:27.594Z,17.05
2018-08-03T05:55:55.051Z,16.97
2018-08-03T05:58:22.490Z,17.37
2018-08-03T06:00:49.998Z,16.67
2018-08-03T06:03:17.427Z,19.10
2018-08-03T06:05:44.858Z,27.50
2018-08-03T06:08:12.299Z,24.23
2018-08-03T06:10:39.697Z,18.55
2018-08-03T06:13:07.134Z,17.32
2018-08-03T06:15:34.500Z,17.98
2018-08-03T06:18:01.991Z,18.00
2018-08-03T06:20:29.436Z,26.30
2018-08-03T06:22:56.826Z,25.08
2018-08-03T06:25:24.222Z,18.30
2018-08-03T06:27:52.320Z,16.90
2018-08-03T06:30:19.973Z,16.37
2018-08-03T06:32:47.379Z,16.75
2018-08-03T06:35:14.876Z,16.67
2018-08-03T06:37:42.423Z,15.93
2018-08-03T06:40:09.773Z,16.93
2018-08-03T06:42:37.175Z,22.60
2018-08-03T06:45:04.656Z,15.85
2018-08-03T06:47:32.130Z,16.40
2018-08-03T06:49:59.829Z,17.98
2018-08-03T06:52:27.225Z,21.23
2018-08-03T06:54:54.647Z,16.87
2018-08-03T06:57:22.065Z,16.15
2018-08-03T06:59:49.454Z,15.90
2018-08-03T07:02:16.891Z,16.07
2018-08-03T07:04:44.371Z,16.27
2018-08-03T07:07:11.808Z,15.60
2018-08-03T07:09:39.380Z,17.98
2018-08-03T07:12:06.680Z,20.05
2018-08-03T07:14:34.262Z,18.98
2018-08-03T07:17:01.724Z,18.75
2018-08-03T07:19:29.336Z,16.07
2018-08-03T07:21:56.733Z,19.05
2018-08-03T07:24:24.118Z,16.17
2018-08-03T07:26:51.773Z,30.97
2018-08-03T07:29:19.190Z,22.82
2018-08-03T07:31:46.787Z,28.00
2018-08-03T07:34:14.301Z,16.45
2018-08-03T07:36:41.649Z,19.15
2018-08-03T07:39:09.229Z,16.02
2018-08-03T07:41:36.685Z,19.57
2018-08-03T07:44:04.329Z,15.28
2018-08-03T07:46:31.858Z,17.12
2018-08-03T07:48:59.255Z,16.32
2018-08-03T07:51:26.732Z,14.85
2018-08-03T07:53:54.235Z,13.80
2018-08-03T07:56:21.702Z,13.63
2018-08-03T07:58:49.198Z,13.62
2018-08-03T08:01:17.077Z,19.40
2018-08-03T08:03:44.523Z,22.05
2018-08-03T08:06:11.970Z,14.10
2018-08-03T08:08:39.380Z,13.57
2018-08-03T08:11:06.861Z,13.83
2018-08-03T08:13:34.468Z,13.18
2018-08-03T08:16:01.927Z,13.48
2018-08-03T08:18:30.510Z,13.25
2018-08-03T08:20:58.263Z,16.93
2018-08-03T08:23:25.825Z,22.17
2018-08-03T08:25:53.382Z,16.97
2018-08-03T08:28:20.856Z,14.18
2018-08-03T08:30:48.326Z,13.30
2018-08-03T08:33:15.820Z,12.70
2018-08-03T08:35:43.152Z,13.83
2018-08-03T08:38:11.022Z,12.28
2018-08-03T08:40:38.791Z,13.00
2018-08-03T08:43:06.270Z,13.13
2018-08-03T08:45:33.672Z,15.38
2018-08-03T08:48:01.212Z,13.27
2018-08-03T08:50:28.704Z,46.43
2018-08-03T08:52:56.324Z,16.83
2018-08-03T08:55:23.766Z,13.40
2018-08-03T08:57:51.135Z,12.73
2018-08-03T09:00:18.721Z,12.82
2018-08-03T09:02:46.294Z,15.13
2018-08-03T09:05:13.844Z,17.60
2018-08-03T09:07:41.406Z,18.48
2018-08-03T09:10:09.173Z,12.33
2018-08-03T09:12:37.746Z,12.67
2018-08-03T09:15:05.732Z,23.83
2018-08-03T09:17:33.271Z,13.10
2018-08-03T09:20:00.750Z,13.13
2018-08-03T09:22:28.223Z,12.65
2018-08-03T09:24:55.686Z,12.50
2018-08-03T09:27:23.138Z,12.73
2018-08-03T09:29:50.614Z,12.55
2018-08-03T09:32:18.145Z,13.30
2018-08-03T09:34:45.541Z,12.80
2018-08-03T09:37:13.036Z,12.65
2018-08-03T09:39:40.614Z,14.73
2018-08-03T09:42:08.085Z,12.88
2018-08-03T09:44:35.637Z,12.28
2018-08-03T09:47:03.099Z,11.90
2018-08-03T09:49:30.627Z,21.93
2018-08-03T09:51:58.066Z,13.53
2018-08-03T09:54:25.724Z,13.37
2018-08-03T09:56:53.171Z,14.20
2018-08-03T09:59:20.589Z,12.93
2018-08-03T10:01:48.141Z,11.85
2018-08-03T10:04:15.525Z,11.18
2018-08-03T10:06:42.987Z,11.90
2018-08-03T10:09:10.407Z,11.45
2018-08-03T10:11:37.879Z,11.80
2018-08-03T10:14:05.323Z,11.73
2018-08-03T10:16:32.792Z,11.78
2018-08-03T10:19:00.325Z,11.53
2018-08-03T10:21:27.764Z,11.70
2018-08-03T10:23:55.343Z,12.10
2018-08-03T10:26:22.949Z,11.50
2018-08-03T10:28:50.666Z,11.40
2018-08-03T10:31:18.135Z,11.53
2018-08-03T10:33:46.191Z,11.65
2018-08-03T10:36:13.128Z,11.93
2018-08-03T10:38:40.584Z,14.03
2018-08-03T10:41:08.105Z,12.47
2018-08-03T10:43:35.541Z,16.27
2018-08-03T10:46:03.004Z,11.60
2018-08-03T10:48:30.430Z,11.78
2018-08-03T10:50:57.987Z,11.43
2018-08-03T10:53:25.407Z,11.87
2018-08-03T10:55:52.877Z,11.03
2018-08-03T10:58:20.332Z,10.78
2018-08-03T11:00:47.843Z,11.22
2018-08-03T11:03:15.190Z,10.72
2018-08-03T11:05:42.668Z,11.08
2018-08-03T11:08:10.114Z,10.80
2018-08-03T11:10:37.612Z,10.88
2018-08-03T11:13:05.450Z,11.12
2018-08-03T11:15:32.927Z,10.30
2018-08-03T11:18:00.346Z,10.48
2018-08-03T11:20:27.836Z,10.30
2018-08-03T11:22:55.252Z,10.08
2018-08-03T11:25:22.661Z,10.10
2018-08-03T11:27:50.137Z,10.20
2018-08-03T11:30:17.480Z,10.00
2018-08-03T11:32:44.935Z,10.60
2018-08-03T11:35:12.547Z,15.58
2018-08-03T11:37:39.994Z,10.25
2018-08-03T11:40:08.131Z,10.98
2018-08-03T11:42:35.764Z,9.88
2018-08-03T11:45:03.775Z,9.78
2018-08-03T11:47:31.261Z,9.60
2018-08-03T11:49:58.776Z,9.38
2018-08-03T11:52:26.355Z,19.98
2018-08-03T11:54:53.932Z,10.72
2018-08-03T11:57:21.359Z,8.80
2018-08-03T11:59:48.775Z,9.15
2018-08-03T12:02:16.278Z,10.35
2018-08-03T12:04:43.731Z,9.25
2018-08-03T12:07:11.311Z,7.87
2018-08-03T12:09:38.785Z,7.90
2018-08-03T12:12:06.544Z,8.03
2018-08-03T12:14:33.931Z,7.60
2018-08-03T12:17:01.339Z,8.20
2018-08-03T12:19:28.749Z,7.95
2018-08-03T12:21:56.506Z,7.92
2018-08-03T12:24:24.053Z,7.65
2018-08-03T12:26:51.679Z,7.42
2018-08-03T12:29:19.128Z,7.30
2018-08-03T12:31:47.068Z,7.85
2018-08-03T12:34:14.652Z,8.73
2018-08-03T12:36:42.151Z,7.60
2018-08-03T12:39:10.290Z,7.50
2018-08-03T12:41:37.973Z,7.87
2018-08-03T12:44:05.577Z,7.72
2018-08-03T12:46:33.059Z,8.03
2018-08-03T12:49:00.470Z,8.90
2018-08-03T12:51:28.027Z,8.65
2018-08-03T12:53:55.558Z,8.75
2018-08-03T12:56:23.362Z,7.60
2018-08-03T12:58:50.984Z,7.53
2018-08-03T13:01:18.729Z,8.40
2018-08-03T13:03:46.075Z,8.68
2018-08-03T13:06:13.468Z,7.67
2018-08-03T13:08:41.118Z,7.40
2018-08-03T13:11:08.541Z,8.83
2018-08-03T13:13:35.993Z,7.40
2018-08-03T13:16:03.601Z,7.65
2018-08-03T13:18:31.060Z,7.67
2018-08-03T13:20:58.517Z,7.37
2018-08-03T13:23:25.908Z,7.87
2018-08-03T13:25:53.295Z,7.55
2018-08-03T13:28:20.793Z,7.62
2018-08-03T13:30:48.209Z,7.25
2018-08-03T13:33:15.689Z,7.28
2018-08-03T13:35:42.993Z,7.73
2018-08-03T13:38:10.494Z,7.10
2018-08-03T13:40:37.986Z,7.40
2018-08-03T13:43:05.343Z,7.55
2018-08-03T13:45:32.763Z,7.60
2018-08-03T13:48:00.519Z,7.20
2018-08-03T13:50:28.006Z,7.22
2018-08-03T13:52:55.479Z,7.37
2018-08-03T13:55:22.916Z,7.22
2018-08-03T13:57:50.306Z,7.03
2018-08-03T14:00:17.706Z,7.30
2018-08-03T14:02:45.184Z,7.45
2018-08-03T14:05:12.714Z,7.72
2018-08-03T14:07:40.259Z,7.40
2018-08-03T14:10:08.371Z,7.08
2018-08-03T14:12:35.882Z,7.60
2018-08-03T14:15:03.548Z,7.35
2018-08-03T14:17:31.030Z,8.00
2018-08-03T14:19:58.529Z,7.37
2018-08-03T14:22:25.916Z,7.60
2018-08-03T14:24:53.345Z,7.03
2018-08-03T14:27:20.741Z,7.17
2018-08-03T14:29:48.237Z,6.85
2018-08-03T14:32:15.773Z,7.60
2018-08-03T14:34:43.169Z,6.97
2018-08-03T14:37:10.634Z,7.72
2018-08-03T14:39:38.082Z,7.37
2018-08-03T14:42:05.835Z,7.05
2018-08-03T14:44:33.342Z,7.30
2018-08-03T14:47:00.742Z,6.90
2018-08-03T14:49:28.272Z,7.05
2018-08-03T14:51:55.649Z,7.12
2018-08-03T14:54:23.088Z,7.28
2018-08-03T14:56:50.590Z,7.35
2018-08-03T14:59:18.029Z,7.35
2018-08-03T15:01:45.752Z,7.47
2018-08-03T15:04:13.212Z,7.20
2018-08-03T15:06:40.707Z,7.30
2018-08-03T15:09:09.510Z,7.40
2018-08-03T15:11:36.939Z,7.20
2018-08-03T15:14:04.417Z,7.12
2018-08-03T15:16:31.766Z,7.15
2018-08-03T15:18:59.296Z,7.58
2018-08-03T15:21:26.907Z,7.50
2018-08-03T15:23:54.301Z,7.00
2018-08-03T15:26:21.680Z,6.62
2018-08-03T15:28:49.229Z,7.28
2018-08-03T15:31:16.680Z,12.25
2018-08-03T15:33:44.058Z,9.90
2018-08-03T15:36:11.435Z,11.03
2018-08-03T15:38:38.814Z,10.32
2018-08-03T15:41:06.551Z,11.05
2018-08-03T15:43:34.392Z,10.00
2018-08-03T15:46:01.939Z,9.38
2018-08-03T15:48:29.342Z,9.33
2018-08-03T15:50:56.818Z,9.93
2018-08-03T15:53:24.166Z,11.68
2018-08-03T15:55:51.563Z,8.65
2018-08-03T15:58:19.044Z,9.50
2018-08-03T16:00:46.435Z,9.38
2018-08-03T16:05:54.484Z,8.85
2018-08-03T16:08:22.488Z,8.73
2018-08-03T16:10:49.921Z,8.10
2018-08-03T16:13:17.407Z,8.25
2018-08-03T16:15:46.692Z,8.60
2018-08-03T16:18:14.141Z,8.53
2018-08-03T16:20:41.739Z,8.30
2018-08-03T16:23:09.247Z,8.83
2018-08-03T16:25:36.750Z,8.60
2018-08-03T16:28:06.146Z,8.70
2018-08-03T16:30:33.736Z,8.03
2018-08-03T16:33:01.346Z,8.05
2018-08-03T16:35:28.706Z,8.35
2018-08-03T16:37:56.152Z,8.00
2018-08-03T16:40:23.692Z,8.10
2018-08-03T16:42:51.206Z,7.72
2018-08-03T16:45:18.749Z,8.03
2018-08-03T16:47:46.119Z,8.10
2018-08-03T16:50:13.545Z,8.45
2018-08-03T16:52:40.950Z,7.83
2018-08-03T16:55:08.357Z,8.15
2018-08-03T16:57:35.876Z,7.70
2018-08-03T17:00:07.765Z,8.05
2018-08-03T17:02:35.452Z,8.20
2018-08-03T17:05:18.535Z,8.20
2018-08-03T17:07:46.444Z,7.85
2018-08-03T17:10:13.888Z,8.40
2018-08-03T17:12:41.359Z,8.33
2018-08-03T17:15:08.830Z,7.90
2018-08-03T17:17:36.255Z,8.13
2018-08-03T17:20:03.939Z,9.03
2018-08-03T17:22:31.383Z,8.73
2018-08-03T17:24:58.814Z,8.35
2018-08-03T17:27:26.219Z,8.85
2018-08-03T17:29:53.730Z,9.10
2018-08-03T17:32:22.168Z,9.10
2018-08-03T17:34:49.693Z,8.48
2018-08-03T17:37:17.236Z,8.77
2018-08-03T17:39:45.996Z,8.85
2018-08-03T17:42:14.155Z,8.70
2018-08-03T17:44:42.825Z,8.25
2018-08-03T17:47:23.299Z,9.25
2018-08-03T17:49:50.743Z,9.23
2018-08-03T17:52:18.199Z,9.05
2018-08-03T17:54:45.608Z,8.60
2018-08-03T17:57:13.101Z,9.35
2018-08-03T17:59:40.502Z,9.25
2018-08-03T18:02:07.839Z,9.18
2018-08-03T18:04:35.363Z,9.00
2018-08-03T18:07:02.930Z,9.07
2018-08-03T18:09:30.499Z,8.53
2018-08-03T18:11:57.976Z,8.50
2018-08-03T18:14:25.436Z,9.08
2018-08-03T18:16:53.032Z,9.15
2018-08-03T18:19:26.025Z,9.23
2018-08-03T18:21:55.401Z,9.15
2018-08-03T18:24:22.902Z,9.15
2018-08-03T18:26:50.376Z,9.63
2018-08-03T18:29:37.248Z,8.75
2018-08-03T18:32:06.761Z,11.60
2018-08-03T18:34:34.474Z,9.55
2018-08-03T18:37:02.355Z,9.45
2018-08-03T18:39:30.132Z,9.08
2018-08-03T18:41:57.555Z,9.50
2018-08-03T18:44:24.930Z,9.43
2018-08-03T18:46:52.402Z,9.65
2018-08-03T18:49:20.001Z,9.30
2018-08-03T18:51:47.447Z,9.33
2018-08-03T18:54:15.665Z,9.63
2018-08-03T18:56:43.079Z,9.50
2018-08-03T18:59:10.564Z,9.58
2018-08-03T19:01:38.040Z,9.43
2018-08-03T19:04:05.446Z,14.20
2018-08-03T19:06:32.923Z,13.97
2018-08-03T19:09:00.323Z,13.80
2018-08-03T19:11:27.791Z,12.35
2018-08-03T19:13:55.360Z,11.93
2018-08-03T19:16:22.792Z,11.48
2018-08-03T19:18:50.629Z,11.55
2018-08-03T19:21:18.180Z,10.88
2018-08-03T19:23:46.060Z,11.33
2018-08-03T19:26:13.619Z,10.78
2018-08-03T19:28:41.222Z,10.72
2018-08-03T19:31:08.578Z,10.28
2018-08-03T19:33:36.081Z,10.65
2018-08-03T19:36:03.544Z,10.50
2018-08-03T19:38:31.159Z,11.65
2018-08-03T19:40:58.655Z,11.10
2018-08-03T19:43:26.049Z,10.50
2018-08-03T19:45:53.612Z,10.58
2018-08-03T19:48:21.057Z,10.32
2018-08-03T19:50:48.723Z,10.28
2018-08-03T19:53:16.233Z,10.70
2018-08-03T19:55:43.669Z,10.95
2018-08-03T19:58:13.608Z,11.18
2018-08-03T20:00:41.095Z,10.63
2018-08-03T20:03:08.489Z,10.93
2018-08-03T20:05:35.968Z,11.15
2018-08-03T20:08:03.473Z,13.18
2018-08-03T20:10:30.984Z,13.48
2018-08-03T20:12:58.386Z,10.95
2018-08-03T20:15:25.880Z,10.80
2018-08-03T20:17:53.280Z,10.50
2018-08-03T20:20:20.878Z,9.33
2018-08-03T20:22:48.307Z,9.95
2018-08-03T20:25:15.857Z,10.38
2018-08-03T20:27:43.281Z,10.70
2018-08-03T20:30:10.809Z,10.58
2018-08-03T20:32:38.337Z,11.15
2018-08-03T20:35:05.978Z,13.58
2018-08-03T20:37:33.520Z,17.00
2018-08-03T20:40:00.973Z,11.43
2018-08-03T20:42:28.455Z,10.60
2018-08-03T20:44:56.028Z,10.55
2018-08-03T20:47:23.524Z,10.85
2018-08-03T20:49:50.908Z,11.10
2018-08-03T20:52:18.468Z,11.12
2018-08-03T20:54:45.828Z,10.80
2018-08-03T20:57:13.580Z,10.60
2018-08-03T20:59:41.064Z,10.18
2018-08-03T21:02:08.599Z,10.82
2018-08-03T21:20:00.518Z,10.43
2018-08-03T21:22:31.166Z,9.98
2018-08-03T21:25:02.499Z,10.43
2018-08-03T21:27:30.209Z,10.17
2018-08-03T21:29:57.600Z,10.08
2018-08-03T21:32:25.043Z,9.75
2018-08-03T21:34:52.515Z,10.10
2018-08-03T21:37:20.029Z,9.58
2018-08-03T21:39:47.463Z,9.65
2018-08-03T21:42:14.862Z,9.53
2018-08-03T21:44:42.434Z,10.10
2018-08-03T21:47:09.920Z,9.15
2018-08-03T21:49:37.265Z,9.80
2018-08-03T21:52:04.853Z,9.50
2018-08-03T21:54:32.390Z,10.08
2018-08-03T21:56:59.830Z,9.55
2018-08-03T21:59:27.416Z,10.60
2018-08-03T22:01:54.858Z,10.28
2018-08-03T22:04:22.379Z,11.18
2018-08-03T22:06:49.894Z,10.43
2018-08-03T22:09:17.320Z,11.97
2018-08-03T22:11:44.657Z,11.40
2018-08-03T22:14:12.080Z,12.57
2018-08-03T22:16:39.608Z,12.53
2018-08-03T22:19:07.014Z,12.43
2018-08-03T22:21:34.548Z,13.20
2018-08-03T22:24:02.052Z,13.30
2018-08-03T22:26:29.567Z,13.48
2018-08-03T22:28:57.060Z,14.15
2018-08-03T22:31:24.516Z,13.75
2018-08-03T22:33:52.174Z,13.13
2018-08-03T22:36:19.627Z,13.75
2018-08-03T22:38:47.133Z,14.28
2018-08-03T22:41:16.762Z,14.58
2018-08-03T22:43:44.848Z,14.20
2018-08-03T22:46:12.247Z,13.95
2018-08-03T22:48:39.768Z,13.88
2018-08-03T22:51:07.256Z,14.00
2018-08-03T22:53:34.696Z,14.33
2018-08-03T22:56:02.343Z,14.70
2018-08-03T22:58:29.851Z,14.33
2018-08-03T23:00:57.935Z,14.47
2018-08-03T23:03:25.553Z,14.83
2018-08-03T23:05:52.997Z,14.87
2018-08-03T23:08:20.573Z,15.10
2018-08-03T23:10:48.071Z,14.15
2018-08-03T23:13:15.508Z,13.88
2018-08-03T23:15:42.943Z,14.47
2018-08-03T23:18:10.332Z,14.07
2018-08-03T23:20:37.819Z,14.38
2018-08-03T23:23:05.384Z,14.28
2018-08-03T23:25:32.856Z,13.68
2018-08-03T23:28:00.275Z,12.70
2018-08-03T23:30:27.788Z,13.60
2018-08-03T23:32:55.257Z,12.68
2018-08-03T23:35:22.650Z,12.90
2018-08-03T23:37:50.021Z,12.98
2018-08-03T23:40:17.486Z,13.48
2018-08-03T23:42:45.021Z,13.18
2018-08-03T23:45:12.555Z,12.78
2018-08-03T23:47:39.988Z,13.20
2018-08-03T23:50:11.987Z,12.80
2018-08-03T23:52:39.521Z,12.83
2018-08-03T23:55:07.068Z,13.03
2018-08-03T23:57:34.529Z,12.67
